sensor_id;sensor_type;location;lat;lon;timestamp;P1;durP1;ratioP1;P2;durP2;ratioP2
6406;SDS011;3236;51.022;6.818;2024-03-25T00:00:45;20.65;;;5.65;;
6406;SDS011;3236;51.022;6.818;2024-03-25T00:03:12;14.35;;;4.50;;
6406;SDS011;3236;51.022;6.818;2024-03-25T00:05:38;16.65;;;5.90;;
6406;SDS011;3236;51.022;6.818;2024-03-25T00:08:05;11.25;;;4.18;;
6406;SDS011;3236;51.022;6.818;2024-03-25T00:10:32;14.45;;;4.45;;
6406;SDS011;3236;51.022;6.818;2024-03-25T00:12:59;11.25;;;4.63;;
6406;SDS011;3236;51.022;6.818;2024-03-25T00:15:27;17.10;;;3.88;;
6406;SDS011;3236;51.022;6.818;2024-03-25T00:17:54;11.35;;;4.00;;
6406;SDS011;3236;51.022;6.818;2024-03-25T00:20:21;15.63;;;5.35;;
6406;SDS011;3236;51.022;6.818;2024-03-25T00:22:49;21.50;;;4.55;;
6406;SDS011;3236;51.022;6.818;2024-03-25T00:25:17;24.17;;;5.38;;
6406;SDS011;3236;51.022;6.818;2024-03-25T00:27:44;8.77;;;5.05;;
6406;SDS011;3236;51.022;6.818;2024-03-25T00:30:10;12.60;;;4.82;;
6406;SDS011;3236;51.022;6.818;2024-03-25T00:32:40;12.32;;;4.50;;
6406;SDS011;3236;51.022;6.818;2024-03-25T00:35:06;15.90;;;4.32;;
6406;SDS011;3236;51.022;6.818;2024-03-25T00:37:33;15.40;;;4.78;;
6406;SDS011;3236;51.022;6.818;2024-03-25T00:39:59;18.98;;;5.75;;
6406;SDS011;3236;51.022;6.818;2024-03-25T00:42:26;17.27;;;4.30;;
6406;SDS011;3236;51.022;6.818;2024-03-25T00:44:52;16.38;;;5.40;;
6406;SDS011;3236;51.022;6.818;2024-03-25T00:47:19;19.83;;;6.70;;
6406;SDS011;3236;51.022;6.818;2024-03-25T00:49:48;17.95;;;4.72;;
6406;SDS011;3236;51.022;6.818;2024-03-25T00:52:15;11.43;;;5.00;;
6406;SDS011;3236;51.022;6.818;2024-03-25T00:54:41;16.83;;;4.65;;
6406;SDS011;3236;51.022;6.818;2024-03-25T00:57:08;20.48;;;4.43;;
6406;SDS011;3236;51.022;6.818;2024-03-25T00:59:37;14.50;;;4.93;;
6406;SDS011;3236;51.022;6.818;2024-03-25T01:02:04;14.10;;;4.47;;
6406;SDS011;3236;51.022;6.818;2024-03-25T01:04:32;11.38;;;4.28;;
6406;SDS011;3236;51.022;6.818;2024-03-25T01:07:00;16.10;;;5.07;;
6406;SDS011;3236;51.022;6.818;2024-03-25T01:09:26;17.27;;;4.90;;
6406;SDS011;3236;51.022;6.818;2024-03-25T01:11:55;19.88;;;4.93;;
6406;SDS011;3236;51.022;6.818;2024-03-25T01:14:21;19.20;;;5.38;;
6406;SDS011;3236;51.022;6.818;2024-03-25T01:16:48;20.52;;;5.05;;
6406;SDS011;3236;51.022;6.818;2024-03-25T01:19:17;16.63;;;4.70;;
6406;SDS011;3236;51.022;6.818;2024-03-25T01:24:13;15.45;;;4.90;;
6406;SDS011;3236;51.022;6.818;2024-03-25T01:26:40;22.85;;;4.78;;
6406;SDS011;3236;51.022;6.818;2024-03-25T01:29:06;15.68;;;4.43;;
6406;SDS011;3236;51.022;6.818;2024-03-25T01:31:34;14.93;;;4.18;;
6406;SDS011;3236;51.022;6.818;2024-03-25T01:34:01;15.43;;;4.20;;
6406;SDS011;3236;51.022;6.818;2024-03-25T01:36:28;10.50;;;2.88;;
6406;SDS011;3236;51.022;6.818;2024-03-25T01:38:54;21.40;;;4.55;;
6406;SDS011;3236;51.022;6.818;2024-03-25T01:41:25;12.70;;;3.97;;
6406;SDS011;3236;51.022;6.818;2024-03-25T01:43:51;16.55;;;4.68;;
6406;SDS011;3236;51.022;6.818;2024-03-25T01:46:19;16.70;;;4.45;;
6406;SDS011;3236;51.022;6.818;2024-03-25T01:48:46;16.90;;;4.03;;
6406;SDS011;3236;51.022;6.818;2024-03-25T01:51:15;19.77;;;4.28;;
6406;SDS011;3236;51.022;6.818;2024-03-25T01:53:43;9.77;;;3.35;;
6406;SDS011;3236;51.022;6.818;2024-03-25T01:56:11;16.95;;;4.22;;
6406;SDS011;3236;51.022;6.818;2024-03-25T01:58:40;16.48;;;4.60;;
6406;SDS011;3236;51.022;6.818;2024-03-25T02:01:07;14.15;;;3.53;;
6406;SDS011;3236;51.022;6.818;2024-03-25T02:03:38;20.60;;;4.00;;
6406;SDS011;3236;51.022;6.818;2024-03-25T02:06:06;12.10;;;3.30;;
6406;SDS011;3236;51.022;6.818;2024-03-25T02:08:37;16.50;;;3.95;;
6406;SDS011;3236;51.022;6.818;2024-03-25T02:11:05;12.68;;;3.50;;
6406;SDS011;3236;51.022;6.818;2024-03-25T02:13:32;15.30;;;4.20;;
6406;SDS011;3236;51.022;6.818;2024-03-25T02:16:01;21.35;;;4.25;;
6406;SDS011;3236;51.022;6.818;2024-03-25T02:18:28;12.40;;;3.72;;
6406;SDS011;3236;51.022;6.818;2024-03-25T02:20:56;15.23;;;3.30;;
6406;SDS011;3236;51.022;6.818;2024-03-25T02:23:22;17.73;;;3.88;;
6406;SDS011;3236;51.022;6.818;2024-03-25T02:25:50;15.90;;;3.80;;
6406;SDS011;3236;51.022;6.818;2024-03-25T02:28:17;14.10;;;3.83;;
6406;SDS011;3236;51.022;6.818;2024-03-25T02:30:44;29.27;;;4.05;;
6406;SDS011;3236;51.022;6.818;2024-03-25T02:33:10;22.90;;;3.80;;
6406;SDS011;3236;51.022;6.818;2024-03-25T02:35:37;19.00;;;4.47;;
6406;SDS011;3236;51.022;6.818;2024-03-25T02:38:06;12.95;;;3.42;;
6406;SDS011;3236;51.022;6.818;2024-03-25T02:40:34;19.05;;;5.05;;
6406;SDS011;3236;51.022;6.818;2024-03-25T02:43:03;24.20;;;5.00;;
6406;SDS011;3236;51.022;6.818;2024-03-25T02:45:32;21.10;;;4.00;;
6406;SDS011;3236;51.022;6.818;2024-03-25T02:47:58;18.95;;;4.05;;
6406;SDS011;3236;51.022;6.818;2024-03-25T02:50:25;21.80;;;3.72;;
6406;SDS011;3236;51.022;6.818;2024-03-25T02:52:52;10.23;;;3.67;;
6406;SDS011;3236;51.022;6.818;2024-03-25T02:55:19;15.88;;;3.83;;
6406;SDS011;3236;51.022;6.818;2024-03-25T02:57:44;15.68;;;4.95;;
6406;SDS011;3236;51.022;6.818;2024-03-25T03:00:13;25.83;;;4.28;;
6406;SDS011;3236;51.022;6.818;2024-03-25T03:02:40;24.60;;;3.60;;
6406;SDS011;3236;51.022;6.818;2024-03-25T03:05:07;18.75;;;3.92;;
6406;SDS011;3236;51.022;6.818;2024-03-25T03:07:36;15.80;;;3.88;;
6406;SDS011;3236;51.022;6.818;2024-03-25T03:10:03;15.02;;;3.33;;
6406;SDS011;3236;51.022;6.818;2024-03-25T03:12:30;19.00;;;3.53;;
6406;SDS011;3236;51.022;6.818;2024-03-25T03:14:57;13.50;;;3.50;;
6406;SDS011;3236;51.022;6.818;2024-03-25T03:17:24;21.30;;;4.35;;
6406;SDS011;3236;51.022;6.818;2024-03-25T03:19:51;20.38;;;3.55;;
6406;SDS011;3236;51.022;6.818;2024-03-25T03:22:18;24.20;;;4.30;;
6406;SDS011;3236;51.022;6.818;2024-03-25T03:24:45;25.33;;;4.38;;
6406;SDS011;3236;51.022;6.818;2024-03-25T03:27:11;22.23;;;3.70;;
6406;SDS011;3236;51.022;6.818;2024-03-25T03:29:38;19.55;;;3.45;;
6406;SDS011;3236;51.022;6.818;2024-03-25T03:32:04;17.85;;;3.70;;
6406;SDS011;3236;51.022;6.818;2024-03-25T03:34:32;22.92;;;4.43;;
6406;SDS011;3236;51.022;6.818;2024-03-25T03:36:58;19.17;;;3.83;;
6406;SDS011;3236;51.022;6.818;2024-03-25T03:39:25;20.95;;;3.58;;
6406;SDS011;3236;51.022;6.818;2024-03-25T03:41:52;11.10;;;3.47;;
6406;SDS011;3236;51.022;6.818;2024-03-25T03:44:19;18.90;;;3.55;;
6406;SDS011;3236;51.022;6.818;2024-03-25T03:46:45;13.38;;;3.50;;
6406;SDS011;3236;51.022;6.818;2024-03-25T03:49:11;24.92;;;4.78;;
6406;SDS011;3236;51.022;6.818;2024-03-25T03:51:39;13.25;;;4.07;;
6406;SDS011;3236;51.022;6.818;2024-03-25T03:54:06;24.83;;;4.53;;
6406;SDS011;3236;51.022;6.818;2024-03-25T03:56:33;19.55;;;4.50;;
6406;SDS011;3236;51.022;6.818;2024-03-25T03:59:00;17.85;;;3.78;;
6406;SDS011;3236;51.022;6.818;2024-03-25T04:01:26;13.82;;;3.92;;
6406;SDS011;3236;51.022;6.818;2024-03-25T04:03:53;22.20;;;3.67;;
6406;SDS011;3236;51.022;6.818;2024-03-25T04:06:20;25.40;;;3.83;;
6406;SDS011;3236;51.022;6.818;2024-03-25T04:08:51;18.10;;;3.72;;
6406;SDS011;3236;51.022;6.818;2024-03-25T04:11:17;20.67;;;3.83;;
6406;SDS011;3236;51.022;6.818;2024-03-25T04:13:46;23.95;;;4.93;;
6406;SDS011;3236;51.022;6.818;2024-03-25T04:16:12;21.50;;;3.72;;
6406;SDS011;3236;51.022;6.818;2024-03-25T04:18:42;25.58;;;4.43;;
6406;SDS011;3236;51.022;6.818;2024-03-25T04:21:11;23.55;;;4.65;;
6406;SDS011;3236;51.022;6.818;2024-03-25T04:23:39;32.20;;;5.57;;
6406;SDS011;3236;51.022;6.818;2024-03-25T04:26:07;16.25;;;4.13;;
6406;SDS011;3236;51.022;6.818;2024-03-25T04:28:34;20.35;;;4.80;;
6406;SDS011;3236;51.022;6.818;2024-03-25T04:31:04;26.25;;;4.72;;
6406;SDS011;3236;51.022;6.818;2024-03-25T04:33:31;24.25;;;4.82;;
6406;SDS011;3236;51.022;6.818;2024-03-25T04:35:57;20.15;;;4.28;;
6406;SDS011;3236;51.022;6.818;2024-03-25T04:38:24;25.98;;;5.28;;
6406;SDS011;3236;51.022;6.818;2024-03-25T04:40:53;21.13;;;4.38;;
6406;SDS011;3236;51.022;6.818;2024-03-25T04:43:21;21.08;;;5.07;;
6406;SDS011;3236;51.022;6.818;2024-03-25T04:45:47;26.05;;;5.45;;
6406;SDS011;3236;51.022;6.818;2024-03-25T04:48:18;29.13;;;4.80;;
6406;SDS011;3236;51.022;6.818;2024-03-25T04:50:45;22.50;;;6.65;;
6406;SDS011;3236;51.022;6.818;2024-03-25T04:53:11;19.50;;;5.70;;
6406;SDS011;3236;51.022;6.818;2024-03-25T04:55:37;21.15;;;5.63;;
6406;SDS011;3236;51.022;6.818;2024-03-25T04:58:03;18.88;;;5.10;;
6406;SDS011;3236;51.022;6.818;2024-03-25T05:00:31;21.70;;;5.45;;
6406;SDS011;3236;51.022;6.818;2024-03-25T05:02:57;22.38;;;4.90;;
6406;SDS011;3236;51.022;6.818;2024-03-25T05:05:24;17.02;;;6.13;;
6406;SDS011;3236;51.022;6.818;2024-03-25T05:07:50;12.80;;;4.88;;
6406;SDS011;3236;51.022;6.818;2024-03-25T05:10:16;22.58;;;5.15;;
6406;SDS011;3236;51.022;6.818;2024-03-25T05:12:42;23.48;;;5.50;;
6406;SDS011;3236;51.022;6.818;2024-03-25T05:15:08;18.52;;;5.05;;
6406;SDS011;3236;51.022;6.818;2024-03-25T05:17:36;20.27;;;6.80;;
6406;SDS011;3236;51.022;6.818;2024-03-25T05:20:03;18.77;;;5.63;;
6406;SDS011;3236;51.022;6.818;2024-03-25T05:22:30;30.55;;;6.07;;
6406;SDS011;3236;51.022;6.818;2024-03-25T05:24:56;23.85;;;5.18;;
6406;SDS011;3236;51.022;6.818;2024-03-25T05:27:23;21.25;;;5.35;;
6406;SDS011;3236;51.022;6.818;2024-03-25T05:29:49;21.05;;;4.35;;
6406;SDS011;3236;51.022;6.818;2024-03-25T05:32:16;20.73;;;4.82;;
6406;SDS011;3236;51.022;6.818;2024-03-25T05:34:43;26.38;;;6.00;;
6406;SDS011;3236;51.022;6.818;2024-03-25T05:37:09;25.30;;;5.90;;
6406;SDS011;3236;51.022;6.818;2024-03-25T05:39:35;28.70;;;6.60;;
6406;SDS011;3236;51.022;6.818;2024-03-25T05:42:02;22.13;;;5.15;;
6406;SDS011;3236;51.022;6.818;2024-03-25T05:44:28;24.80;;;5.38;;
6406;SDS011;3236;51.022;6.818;2024-03-25T05:46:54;20.50;;;5.60;;
6406;SDS011;3236;51.022;6.818;2024-03-25T05:49:21;27.48;;;6.40;;
6406;SDS011;3236;51.022;6.818;2024-03-25T05:51:48;31.15;;;6.03;;
6406;SDS011;3236;51.022;6.818;2024-03-25T05:54:14;29.83;;;6.07;;
6406;SDS011;3236;51.022;6.818;2024-03-25T05:56:40;20.67;;;5.85;;
6406;SDS011;3236;51.022;6.818;2024-03-25T05:59:07;34.25;;;6.70;;
6406;SDS011;3236;51.022;6.818;2024-03-25T06:01:33;18.65;;;5.28;;
6406;SDS011;3236;51.022;6.818;2024-03-25T06:03:59;28.50;;;7.00;;
6406;SDS011;3236;51.022;6.818;2024-03-25T06:06:25;31.70;;;6.63;;
6406;SDS011;3236;51.022;6.818;2024-03-25T06:08:53;30.45;;;6.68;;
6406;SDS011;3236;51.022;6.818;2024-03-25T06:11:19;25.10;;;7.13;;
6406;SDS011;3236;51.022;6.818;2024-03-25T06:13:45;26.20;;;6.60;;
6406;SDS011;3236;51.022;6.818;2024-03-25T06:16:12;30.10;;;6.95;;
6406;SDS011;3236;51.022;6.818;2024-03-25T06:18:38;26.50;;;7.03;;
6406;SDS011;3236;51.022;6.818;2024-03-25T06:21:04;21.80;;;6.50;;
6406;SDS011;3236;51.022;6.818;2024-03-25T06:23:30;25.08;;;6.05;;
6406;SDS011;3236;51.022;6.818;2024-03-25T06:25:58;25.17;;;7.70;;
6406;SDS011;3236;51.022;6.818;2024-03-25T06:28:24;26.65;;;6.47;;
6406;SDS011;3236;51.022;6.818;2024-03-25T06:30:51;30.52;;;8.57;;
6406;SDS011;3236;51.022;6.818;2024-03-25T06:33:35;27.50;;;6.15;;
6406;SDS011;3236;51.022;6.818;2024-03-25T06:36:31;23.52;;;6.38;;
6406;SDS011;3236;51.022;6.818;2024-03-25T06:38:57;24.80;;;6.53;;
6406;SDS011;3236;51.022;6.818;2024-03-25T06:41:25;20.60;;;6.30;;
6406;SDS011;3236;51.022;6.818;2024-03-25T06:43:51;23.80;;;7.00;;
6406;SDS011;3236;51.022;6.818;2024-03-25T06:46:17;26.13;;;6.03;;
6406;SDS011;3236;51.022;6.818;2024-03-25T06:48:43;25.52;;;6.70;;
6406;SDS011;3236;51.022;6.818;2024-03-25T06:51:09;23.35;;;7.20;;
6406;SDS011;3236;51.022;6.818;2024-03-25T06:53:36;20.60;;;6.35;;
6406;SDS011;3236;51.022;6.818;2024-03-25T06:56:02;15.82;;;6.38;;
6406;SDS011;3236;51.022;6.818;2024-03-25T06:58:30;20.55;;;5.95;;
6406;SDS011;3236;51.022;6.818;2024-03-25T07:00:56;26.65;;;6.35;;
6406;SDS011;3236;51.022;6.818;2024-03-25T07:03:23;25.83;;;7.03;;
6406;SDS011;3236;51.022;6.818;2024-03-25T07:05:49;16.40;;;6.35;;
6406;SDS011;3236;51.022;6.818;2024-03-25T07:08:16;15.57;;;6.63;;
6406;SDS011;3236;51.022;6.818;2024-03-25T07:10:43;23.88;;;6.47;;
6406;SDS011;3236;51.022;6.818;2024-03-25T07:13:09;18.50;;;6.07;;
6406;SDS011;3236;51.022;6.818;2024-03-25T07:15:37;15.63;;;5.47;;
6406;SDS011;3236;51.022;6.818;2024-03-25T07:18:03;22.20;;;6.90;;
6406;SDS011;3236;51.022;6.818;2024-03-25T07:20:30;19.02;;;5.63;;
6406;SDS011;3236;51.022;6.818;2024-03-25T07:22:56;16.10;;;6.03;;
6406;SDS011;3236;51.022;6.818;2024-03-25T07:25:22;26.70;;;7.10;;
6406;SDS011;3236;51.022;6.818;2024-03-25T07:27:49;17.80;;;5.80;;
6406;SDS011;3236;51.022;6.818;2024-03-25T07:30:15;14.05;;;4.65;;
6406;SDS011;3236;51.022;6.818;2024-03-25T07:32:43;19.40;;;4.63;;
6406;SDS011;3236;51.022;6.818;2024-03-25T07:35:09;13.57;;;4.35;;
6406;SDS011;3236;51.022;6.818;2024-03-25T07:37:35;18.60;;;5.40;;
6406;SDS011;3236;51.022;6.818;2024-03-25T07:40:02;17.00;;;4.40;;
6406;SDS011;3236;51.022;6.818;2024-03-25T07:42:28;14.93;;;4.60;;
6406;SDS011;3236;51.022;6.818;2024-03-25T07:44:55;17.73;;;4.35;;
6406;SDS011;3236;51.022;6.818;2024-03-25T07:47:21;13.90;;;4.47;;
6406;SDS011;3236;51.022;6.818;2024-03-25T07:49:48;11.35;;;3.95;;
6406;SDS011;3236;51.022;6.818;2024-03-25T07:52:14;11.13;;;3.40;;
6406;SDS011;3236;51.022;6.818;2024-03-25T07:54:41;18.58;;;4.65;;
6406;SDS011;3236;51.022;6.818;2024-03-25T07:57:08;9.90;;;4.05;;
6406;SDS011;3236;51.022;6.818;2024-03-25T07:59:34;16.05;;;4.60;;
6406;SDS011;3236;51.022;6.818;2024-03-25T08:02:00;15.77;;;4.43;;
6406;SDS011;3236;51.022;6.818;2024-03-25T08:04:27;13.57;;;3.78;;
6406;SDS011;3236;51.022;6.818;2024-03-25T08:06:54;13.82;;;3.83;;
6406;SDS011;3236;51.022;6.818;2024-03-25T08:09:21;17.20;;;4.18;;
6406;SDS011;3236;51.022;6.818;2024-03-25T08:11:47;10.85;;;3.65;;
6406;SDS011;3236;51.022;6.818;2024-03-25T08:14:14;16.05;;;4.53;;
6406;SDS011;3236;51.022;6.818;2024-03-25T08:16:40;9.38;;;3.72;;
6406;SDS011;3236;51.022;6.818;2024-03-25T08:19:06;20.63;;;4.60;;
6406;SDS011;3236;51.022;6.818;2024-03-25T08:21:33;14.30;;;3.95;;
6406;SDS011;3236;51.022;6.818;2024-03-25T08:24:00;10.52;;;2.63;;
6406;SDS011;3236;51.022;6.818;2024-03-25T08:26:26;18.83;;;4.05;;
6406;SDS011;3236;51.022;6.818;2024-03-25T08:28:52;11.73;;;3.33;;
6406;SDS011;3236;51.022;6.818;2024-03-25T08:31:19;15.95;;;4.15;;
6406;SDS011;3236;51.022;6.818;2024-03-25T08:33:45;13.63;;;3.85;;
6406;SDS011;3236;51.022;6.818;2024-03-25T08:36:18;12.73;;;2.90;;
6406;SDS011;3236;51.022;6.818;2024-03-25T08:38:44;9.85;;;4.20;;
6406;SDS011;3236;51.022;6.818;2024-03-25T08:41:12;14.20;;;3.72;;
6406;SDS011;3236;51.022;6.818;2024-03-25T08:43:38;12.95;;;3.70;;
6406;SDS011;3236;51.022;6.818;2024-03-25T08:46:05;16.90;;;3.60;;
6406;SDS011;3236;51.022;6.818;2024-03-25T08:48:31;14.55;;;3.38;;
6406;SDS011;3236;51.022;6.818;2024-03-25T08:50:57;14.90;;;3.90;;
6406;SDS011;3236;51.022;6.818;2024-03-25T08:53:24;14.55;;;3.20;;
6406;SDS011;3236;51.022;6.818;2024-03-25T08:55:50;12.85;;;3.17;;
6406;SDS011;3236;51.022;6.818;2024-03-25T08:58:18;21.08;;;3.90;;
6406;SDS011;3236;51.022;6.818;2024-03-25T09:00:44;15.95;;;3.55;;
6406;SDS011;3236;51.022;6.818;2024-03-25T09:03:10;13.40;;;3.67;;
6406;SDS011;3236;51.022;6.818;2024-03-25T09:05:37;13.75;;;3.03;;
6406;SDS011;3236;51.022;6.818;2024-03-25T09:08:03;18.27;;;2.88;;
6406;SDS011;3236;51.022;6.818;2024-03-25T09:10:30;15.05;;;3.05;;
6406;SDS011;3236;51.022;6.818;2024-03-25T09:13:15;17.10;;;2.60;;
6406;SDS011;3236;51.022;6.818;2024-03-25T09:15:42;15.90;;;3.30;;
6406;SDS011;3236;51.022;6.818;2024-03-25T09:18:09;14.27;;;2.55;;
6406;SDS011;3236;51.022;6.818;2024-03-25T09:20:35;15.68;;;2.83;;
6406;SDS011;3236;51.022;6.818;2024-03-25T09:23:01;15.45;;;2.63;;
6406;SDS011;3236;51.022;6.818;2024-03-25T09:25:27;8.32;;;2.30;;
6406;SDS011;3236;51.022;6.818;2024-03-25T09:27:54;16.90;;;3.25;;
6406;SDS011;3236;51.022;6.818;2024-03-25T09:30:20;15.80;;;2.80;;
6406;SDS011;3236;51.022;6.818;2024-03-25T09:32:48;20.92;;;3.03;;
6406;SDS011;3236;51.022;6.818;2024-03-25T09:35:14;12.77;;;2.60;;
6406;SDS011;3236;51.022;6.818;2024-03-25T09:37:41;13.68;;;3.28;;
6406;SDS011;3236;51.022;6.818;2024-03-25T09:40:08;12.70;;;2.90;;
6406;SDS011;3236;51.022;6.818;2024-03-25T09:42:36;14.52;;;3.03;;
6406;SDS011;3236;51.022;6.818;2024-03-25T09:45:19;23.83;;;3.45;;
6406;SDS011;3236;51.022;6.818;2024-03-25T09:47:53;16.90;;;3.38;;
6406;SDS011;3236;51.022;6.818;2024-03-25T09:50:21;10.95;;;3.10;;
6406;SDS011;3236;51.022;6.818;2024-03-25T09:52:48;13.63;;;3.35;;
6406;SDS011;3236;51.022;6.818;2024-03-25T09:55:17;14.80;;;4.15;;
6406;SDS011;3236;51.022;6.818;2024-03-25T09:57:43;13.15;;;4.72;;
6406;SDS011;3236;51.022;6.818;2024-03-25T10:00:10;12.85;;;4.05;;
6406;SDS011;3236;51.022;6.818;2024-03-25T10:02:38;13.50;;;3.55;;
6406;SDS011;3236;51.022;6.818;2024-03-25T10:05:07;14.77;;;3.75;;
6406;SDS011;3236;51.022;6.818;2024-03-25T10:07:33;31.30;;;4.63;;
6406;SDS011;3236;51.022;6.818;2024-03-25T10:10:03;17.85;;;3.42;;
6406;SDS011;3236;51.022;6.818;2024-03-25T10:12:29;12.00;;;3.78;;
6406;SDS011;3236;51.022;6.818;2024-03-25T10:14:56;16.23;;;3.60;;
6406;SDS011;3236;51.022;6.818;2024-03-25T10:17:30;8.65;;;3.08;;
6406;SDS011;3236;51.022;6.818;2024-03-25T10:19:56;13.27;;;3.22;;
6406;SDS011;3236;51.022;6.818;2024-03-25T10:22:30;17.70;;;4.18;;
6406;SDS011;3236;51.022;6.818;2024-03-25T10:24:56;15.63;;;4.15;;
6406;SDS011;3236;51.022;6.818;2024-03-25T10:27:33;11.20;;;2.92;;
6406;SDS011;3236;51.022;6.818;2024-03-25T10:30:35;11.40;;;3.20;;
6406;SDS011;3236;51.022;6.818;2024-03-25T10:33:02;12.35;;;3.03;;
6406;SDS011;3236;51.022;6.818;2024-03-25T10:35:29;11.05;;;3.47;;
6406;SDS011;3236;51.022;6.818;2024-03-25T10:37:58;18.23;;;3.80;;
6406;SDS011;3236;51.022;6.818;2024-03-25T10:40:26;14.98;;;3.20;;
6406;SDS011;3236;51.022;6.818;2024-03-25T10:43:00;8.77;;;3.05;;
6406;SDS011;3236;51.022;6.818;2024-03-25T10:45:28;8.55;;;2.80;;
6406;SDS011;3236;51.022;6.818;2024-03-25T10:47:59;14.55;;;3.25;;
6406;SDS011;3236;51.022;6.818;2024-03-25T10:50:30;16.17;;;4.65;;
6406;SDS011;3236;51.022;6.818;2024-03-25T10:53:01;9.27;;;3.10;;
6406;SDS011;3236;51.022;6.818;2024-03-25T10:55:38;15.43;;;3.60;;
6406;SDS011;3236;51.022;6.818;2024-03-25T10:58:06;7.05;;;3.65;;
6406;SDS011;3236;51.022;6.818;2024-03-25T11:00:33;10.35;;;2.88;;
6406;SDS011;3236;51.022;6.818;2024-03-25T11:02:59;6.80;;;2.35;;
6406;SDS011;3236;51.022;6.818;2024-03-25T11:05:26;11.20;;;2.65;;
6406;SDS011;3236;51.022;6.818;2024-03-25T11:07:53;9.85;;;2.75;;
6406;SDS011;3236;51.022;6.818;2024-03-25T11:10:29;9.40;;;2.90;;
6406;SDS011;3236;51.022;6.818;2024-03-25T11:12:55;5.57;;;2.63;;
6406;SDS011;3236;51.022;6.818;2024-03-25T11:15:23;11.52;;;2.38;;
6406;SDS011;3236;51.022;6.818;2024-03-25T11:17:49;8.88;;;2.78;;
6406;SDS011;3236;51.022;6.818;2024-03-25T11:20:16;8.45;;;2.00;;
6406;SDS011;3236;51.022;6.818;2024-03-25T11:22:48;8.63;;;2.40;;
6406;SDS011;3236;51.022;6.818;2024-03-25T11:25:15;7.30;;;2.22;;
6406;SDS011;3236;51.022;6.818;2024-03-25T11:27:44;7.03;;;2.10;;
6406;SDS011;3236;51.022;6.818;2024-03-25T11:30:10;9.30;;;2.78;;
6406;SDS011;3236;51.022;6.818;2024-03-25T11:32:43;10.60;;;2.38;;
6406;SDS011;3236;51.022;6.818;2024-03-25T11:35:10;7.07;;;2.28;;
6406;SDS011;3236;51.022;6.818;2024-03-25T11:37:41;5.93;;;2.10;;
6406;SDS011;3236;51.022;6.818;2024-03-25T11:40:08;6.18;;;1.80;;
6406;SDS011;3236;51.022;6.818;2024-03-25T11:42:35;7.68;;;2.05;;
6406;SDS011;3236;51.022;6.818;2024-03-25T11:45:03;10.40;;;2.70;;
6406;SDS011;3236;51.022;6.818;2024-03-25T11:47:30;7.45;;;2.25;;
6406;SDS011;3236;51.022;6.818;2024-03-25T11:49:56;4.93;;;2.08;;
6406;SDS011;3236;51.022;6.818;2024-03-25T11:52:29;6.93;;;2.17;;
6406;SDS011;3236;51.022;6.818;2024-03-25T11:54:56;5.68;;;1.90;;
6406;SDS011;3236;51.022;6.818;2024-03-25T11:57:22;7.72;;;2.60;;
6406;SDS011;3236;51.022;6.818;2024-03-25T11:59:48;6.43;;;1.92;;
6406;SDS011;3236;51.022;6.818;2024-03-25T12:02:16;6.40;;;2.30;;
6406;SDS011;3236;51.022;6.818;2024-03-25T12:04:43;6.88;;;2.40;;
6406;SDS011;3236;51.022;6.818;2024-03-25T12:07:11;8.73;;;2.33;;
6406;SDS011;3236;51.022;6.818;2024-03-25T12:09:40;8.68;;;1.95;;
6406;SDS011;3236;51.022;6.818;2024-03-25T12:12:25;4.28;;;1.70;;
6406;SDS011;3236;51.022;6.818;2024-03-25T12:14:52;8.00;;;2.05;;
6406;SDS011;3236;51.022;6.818;2024-03-25T12:17:20;6.05;;;1.92;;
6406;SDS011;3236;51.022;6.818;2024-03-25T12:19:59;4.45;;;1.67;;
6406;SDS011;3236;51.022;6.818;2024-03-25T12:22:28;6.75;;;2.22;;
6406;SDS011;3236;51.022;6.818;2024-03-25T12:24:57;6.43;;;2.28;;
6406;SDS011;3236;51.022;6.818;2024-03-25T12:27:24;5.28;;;1.73;;
6406;SDS011;3236;51.022;6.818;2024-03-25T12:29:57;7.13;;;2.75;;
6406;SDS011;3236;51.022;6.818;2024-03-25T12:32:31;7.82;;;2.45;;
6406;SDS011;3236;51.022;6.818;2024-03-25T12:35:01;8.32;;;2.00;;
6406;SDS011;3236;51.022;6.818;2024-03-25T12:37:27;7.95;;;2.15;;
6406;SDS011;3236;51.022;6.818;2024-03-25T12:39:53;7.30;;;2.45;;
6406;SDS011;3236;51.022;6.818;2024-03-25T12:42:20;8.38;;;2.05;;
6406;SDS011;3236;51.022;6.818;2024-03-25T12:44:52;9.02;;;2.38;;
6406;SDS011;3236;51.022;6.818;2024-03-25T12:47:18;9.38;;;2.10;;
6406;SDS011;3236;51.022;6.818;2024-03-25T12:49:46;10.77;;;2.55;;
6406;SDS011;3236;51.022;6.818;2024-03-25T12:52:12;5.65;;;1.92;;
6406;SDS011;3236;51.022;6.818;2024-03-25T12:54:38;7.57;;;2.25;;
6406;SDS011;3236;51.022;6.818;2024-03-25T12:57:05;4.25;;;1.52;;
6406;SDS011;3236;51.022;6.818;2024-03-25T12:59:31;5.20;;;1.85;;
6406;SDS011;3236;51.022;6.818;2024-03-25T13:01:57;3.75;;;1.63;;
6406;SDS011;3236;51.022;6.818;2024-03-25T13:04:23;3.75;;;1.30;;
6406;SDS011;3236;51.022;6.818;2024-03-25T13:06:53;5.57;;;1.48;;
6406;SDS011;3236;51.022;6.818;2024-03-25T13:09:19;8.35;;;2.10;;
6406;SDS011;3236;51.022;6.818;2024-03-25T13:11:45;7.10;;;1.55;;
6406;SDS011;3236;51.022;6.818;2024-03-25T13:14:12;5.15;;;1.65;;
6406;SDS011;3236;51.022;6.818;2024-03-25T13:16:38;4.05;;;1.70;;
6406;SDS011;3236;51.022;6.818;2024-03-25T13:19:05;3.85;;;1.58;;
6406;SDS011;3236;51.022;6.818;2024-03-25T13:21:31;3.83;;;1.73;;
6406;SDS011;3236;51.022;6.818;2024-03-25T13:23:59;3.40;;;1.48;;
6406;SDS011;3236;51.022;6.818;2024-03-25T13:26:26;5.13;;;1.50;;
6406;SDS011;3236;51.022;6.818;2024-03-25T13:28:53;5.05;;;1.92;;
6406;SDS011;3236;51.022;6.818;2024-03-25T13:31:19;3.58;;;2.00;;
6406;SDS011;3236;51.022;6.818;2024-03-25T13:33:45;6.03;;;1.92;;
6406;SDS011;3236;51.022;6.818;2024-03-25T13:36:11;6.00;;;2.00;;
6406;SDS011;3236;51.022;6.818;2024-03-25T13:38:38;6.95;;;1.70;;
6406;SDS011;3236;51.022;6.818;2024-03-25T13:41:05;7.78;;;1.75;;
6406;SDS011;3236;51.022;6.818;2024-03-25T13:43:32;7.47;;;2.35;;
6406;SDS011;3236;51.022;6.818;2024-03-25T13:45:58;7.47;;;2.20;;
6406;SDS011;3236;51.022;6.818;2024-03-25T13:48:24;6.68;;;2.22;;
6406;SDS011;3236;51.022;6.818;2024-03-25T13:50:52;7.88;;;2.05;;
6406;SDS011;3236;51.022;6.818;2024-03-25T13:53:19;5.32;;;1.67;;
6406;SDS011;3236;51.022;6.818;2024-03-25T13:55:45;6.20;;;2.05;;
6406;SDS011;3236;51.022;6.818;2024-03-25T13:58:12;5.90;;;1.88;;
6406;SDS011;3236;51.022;6.818;2024-03-25T14:00:38;6.13;;;2.00;;
6406;SDS011;3236;51.022;6.818;2024-03-25T14:03:05;4.70;;;1.80;;
6406;SDS011;3236;51.022;6.818;2024-03-25T14:05:32;5.13;;;1.92;;
6406;SDS011;3236;51.022;6.818;2024-03-25T14:07:58;7.28;;;2.42;;
6406;SDS011;3236;51.022;6.818;2024-03-25T14:10:24;9.82;;;1.73;;
6406;SDS011;3236;51.022;6.818;2024-03-25T14:12:50;7.55;;;2.10;;
6406;SDS011;3236;51.022;6.818;2024-03-25T14:15:18;5.45;;;1.90;;
6406;SDS011;3236;51.022;6.818;2024-03-25T14:17:44;7.28;;;2.00;;
6406;SDS011;3236;51.022;6.818;2024-03-25T14:20:18;6.35;;;1.80;;
6406;SDS011;3236;51.022;6.818;2024-03-25T14:22:44;6.45;;;1.80;;
6406;SDS011;3236;51.022;6.818;2024-03-25T14:25:11;4.47;;;1.90;;
6406;SDS011;3236;51.022;6.818;2024-03-25T14:27:37;8.63;;;1.88;;
6406;SDS011;3236;51.022;6.818;2024-03-25T14:30:03;5.82;;;1.70;;
6406;SDS011;3236;51.022;6.818;2024-03-25T14:32:31;8.85;;;1.90;;
6406;SDS011;3236;51.022;6.818;2024-03-25T14:34:57;5.00;;;1.60;;
6406;SDS011;3236;51.022;6.818;2024-03-25T14:37:23;7.18;;;1.95;;
6406;SDS011;3236;51.022;6.818;2024-03-25T14:39:49;7.85;;;2.15;;
6406;SDS011;3236;51.022;6.818;2024-03-25T14:42:16;7.18;;;1.95;;
6406;SDS011;3236;51.022;6.818;2024-03-25T14:44:45;4.60;;;2.47;;
6406;SDS011;3236;51.022;6.818;2024-03-25T14:47:11;6.18;;;1.95;;
6406;SDS011;3236;51.022;6.818;2024-03-25T14:49:38;3.78;;;1.70;;
6406;SDS011;3236;51.022;6.818;2024-03-25T14:52:07;10.57;;;2.28;;
6406;SDS011;3236;51.022;6.818;2024-03-25T14:54:34;4.07;;;1.80;;
6406;SDS011;3236;51.022;6.818;2024-03-25T14:57:03;8.13;;;2.90;;
6406;SDS011;3236;51.022;6.818;2024-03-25T14:59:29;7.72;;;1.80;;
6406;SDS011;3236;51.022;6.818;2024-03-25T15:01:58;8.02;;;2.28;;
6406;SDS011;3236;51.022;6.818;2024-03-25T15:04:25;6.20;;;2.05;;
6406;SDS011;3236;51.022;6.818;2024-03-25T15:06:52;5.05;;;2.25;;
6406;SDS011;3236;51.022;6.818;2024-03-25T15:09:19;5.75;;;2.17;;